Bissen, Luxembourg
Current Conditions -  °F | °C
As of 9:50 AM on Monday 20 Oct 2014 (Local Time) from ELLX Reporting Station
Scattered Clouds Scattered Clouds  
Wind Chill: 59°   Ceiling: Unl
Heat Index: 59°   Visibility: 6mi
Dew Point: 54°   Wind: 10mph
Humidity: 82%   Direction: 260°W
Pressure: 30.12"   Gusts: NA
Location:  49.79°N, 6.07°E
Report Text: ELLX 200750Z 26009KT 240V310 9999 FEW010 SCT012 15/12 Q1020 NOSIG
Loading
Personal Weather Stations






























Interactive Weather Map
Tropical Storm Tracking
New forecast layout! Learn more

10-Day Weather Forecast

Advertisements
Track Severe Weather on mobile